sensor_id;sensor_type;location;lat;lon;timestamp;temperature;humidity
19999;DHT22;10160;50.926;4.374;2023-07-29T00:00:42;20.30;99.90
19999;DHT22;10160;50.926;4.374;2023-07-29T00:03:09;20.30;99.90
19999;DHT22;10160;50.926;4.374;2023-07-29T00:05:35;20.20;99.90
19999;DHT22;10160;50.926;4.374;2023-07-29T00:08:00;20.20;99.90
19999;DHT22;10160;50.926;4.374;2023-07-29T00:10:27;20.10;99.90
19999;DHT22;10160;50.926;4.374;2023-07-29T00:12:52;19.90;99.90
19999;DHT22;10160;50.926;4.374;2023-07-29T00:15:18;20.00;99.90
19999;DHT22;10160;50.926;4.374;2023-07-29T00:17:44;20.00;99.90
19999;DHT22;10160;50.926;4.374;2023-07-29T00:20:09;20.00;99.90
19999;DHT22;10160;50.926;4.374;2023-07-29T00:22:35;19.90;99.90
19999;DHT22;10160;50.926;4.374;2023-07-29T00:25:01;19.90;99.90
19999;DHT22;10160;50.926;4.374;2023-07-29T00:27:27;19.90;99.90
19999;DHT22;10160;50.926;4.374;2023-07-29T00:29:52;19.90;99.90
19999;DHT22;10160;50.926;4.374;2023-07-29T00:32:18;19.70;99.90
19999;DHT22;10160;50.926;4.374;2023-07-29T00:34:44;19.70;99.90
19999;DHT22;10160;50.926;4.374;2023-07-29T00:37:09;19.70;99.90
19999;DHT22;10160;50.926;4.374;2023-07-29T00:39:36;19.70;99.90
19999;DHT22;10160;50.926;4.374;2023-07-29T00:42:03;19.70;99.90
19999;DHT22;10160;50.926;4.374;2023-07-29T00:44:29;19.50;99.90
19999;DHT22;10160;50.926;4.374;2023-07-29T00:46:55;19.50;99.90
19999;DHT22;10160;50.926;4.374;2023-07-29T00:49:21;19.60;99.90
19999;DHT22;10160;50.926;4.374;2023-07-29T00:51:50;19.60;99.90
19999;DHT22;10160;50.926;4.374;2023-07-29T00:54:16;19.50;99.90
19999;DHT22;10160;50.926;4.374;2023-07-29T00:56:44;19.60;99.90
19999;DHT22;10160;50.926;4.374;2023-07-29T00:59:10;19.60;99.90
19999;DHT22;10160;50.926;4.374;2023-07-29T01:01:36;19.50;99.90
19999;DHT22;10160;50.926;4.374;2023-07-29T01:04:02;19.50;99.90
19999;DHT22;10160;50.926;4.374;2023-07-29T01:06:41;19.40;99.90
19999;DHT22;10160;50.926;4.374;2023-07-29T01:09:29;19.40;99.90
19999;DHT22;10160;50.926;4.374;2023-07-29T01:12:11;19.40;99.90
19999;DHT22;10160;50.926;4.374;2023-07-29T01:20:17;19.20;99.90
19999;DHT22;10160;50.926;4.374;2023-07-29T01:22:45;19.20;99.90
19999;DHT22;10160;50.926;4.374;2023-07-29T01:25:13;19.30;99.90
19999;DHT22;10160;50.926;4.374;2023-07-29T01:27:39;19.30;99.90
19999;DHT22;10160;50.926;4.374;2023-07-29T01:30:05;19.20;99.90
19999;DHT22;10160;50.926;4.374;2023-07-29T01:32:53;19.30;99.90
19999;DHT22;10160;50.926;4.374;2023-07-29T01:38:08;19.30;99.90
19999;DHT22;10160;50.926;4.374;2023-07-29T01:40:35;19.10;99.90
19999;DHT22;10160;50.926;4.374;2023-07-29T01:43:01;19.20;99.90
19999;DHT22;10160;50.926;4.374;2023-07-29T01:45:27;19.10;99.90
19999;DHT22;10160;50.926;4.374;2023-07-29T01:47:57;19.00;99.90
19999;DHT22;10160;50.926;4.374;2023-07-29T01:50:22;19.00;99.90
19999;DHT22;10160;50.926;4.374;2023-07-29T01:52:51;19.00;99.90
19999;DHT22;10160;50.926;4.374;2023-07-29T01:55:16;18.90;99.90
19999;DHT22;10160;50.926;4.374;2023-07-29T01:57:42;18.90;99.90
19999;DHT22;10160;50.926;4.374;2023-07-29T02:00:10;18.80;99.90
19999;DHT22;10160;50.926;4.374;2023-07-29T02:02:36;18.80;99.90
19999;DHT22;10160;50.926;4.374;2023-07-29T02:05:04;18.70;99.90
19999;DHT22;10160;50.926;4.374;2023-07-29T02:07:30;18.70;99.90
19999;DHT22;10160;50.926;4.374;2023-07-29T02:09:56;18.70;99.90
19999;DHT22;10160;50.926;4.374;2023-07-29T02:12:21;18.50;99.90
19999;DHT22;10160;50.926;4.374;2023-07-29T02:14:47;18.40;99.90
19999;DHT22;10160;50.926;4.374;2023-07-29T02:17:12;18.30;99.90
19999;DHT22;10160;50.926;4.374;2023-07-29T02:19:38;18.40;99.90
19999;DHT22;10160;50.926;4.374;2023-07-29T02:22:04;18.40;99.90
19999;DHT22;10160;50.926;4.374;2023-07-29T02:24:29;18.50;99.90
19999;DHT22;10160;50.926;4.374;2023-07-29T02:26:55;18.40;99.90
19999;DHT22;10160;50.926;4.374;2023-07-29T02:29:21;18.60;99.90
19999;DHT22;10160;50.926;4.374;2023-07-29T02:31:47;18.60;99.90
19999;DHT22;10160;50.926;4.374;2023-07-29T02:34:13;18.60;99.90
19999;DHT22;10160;50.926;4.374;2023-07-29T02:36:39;18.50;99.90
19999;DHT22;10160;50.926;4.374;2023-07-29T02:39:05;18.60;99.90
19999;DHT22;10160;50.926;4.374;2023-07-29T02:41:31;18.60;99.90
19999;DHT22;10160;50.926;4.374;2023-07-29T02:43:57;18.60;99.90
19999;DHT22;10160;50.926;4.374;2023-07-29T02:46:22;18.60;99.90
19999;DHT22;10160;50.926;4.374;2023-07-29T02:48:49;18.60;99.90
19999;DHT22;10160;50.926;4.374;2023-07-29T02:51:14;18.50;99.90
19999;DHT22;10160;50.926;4.374;2023-07-29T02:53:40;18.60;99.90
19999;DHT22;10160;50.926;4.374;2023-07-29T02:56:06;18.50;99.90
19999;DHT22;10160;50.926;4.374;2023-07-29T02:58:34;18.50;99.90
19999;DHT22;10160;50.926;4.374;2023-07-29T03:01:01;18.50;99.90
19999;DHT22;10160;50.926;4.374;2023-07-29T03:03:27;18.50;99.90
19999;DHT22;10160;50.926;4.374;2023-07-29T03:06:20;18.50;99.90
19999;DHT22;10160;50.926;4.374;2023-07-29T03:08:46;18.40;99.90
19999;DHT22;10160;50.926;4.374;2023-07-29T03:11:15;18.50;99.90
19999;DHT22;10160;50.926;4.374;2023-07-29T03:13:41;18.50;99.90
19999;DHT22;10160;50.926;4.374;2023-07-29T03:16:08;18.40;99.90
19999;DHT22;10160;50.926;4.374;2023-07-29T03:18:35;18.40;99.90
19999;DHT22;10160;50.926;4.374;2023-07-29T03:21:01;18.20;99.90
19999;DHT22;10160;50.926;4.374;2023-07-29T03:23:29;18.10;99.90
19999;DHT22;10160;50.926;4.374;2023-07-29T03:25:55;18.20;99.90
19999;DHT22;10160;50.926;4.374;2023-07-29T03:28:27;18.20;99.90
19999;DHT22;10160;50.926;4.374;2023-07-29T03:30:56;18.10;99.90
19999;DHT22;10160;50.926;4.374;2023-07-29T03:33:23;18.10;99.90
19999;DHT22;10160;50.926;4.374;2023-07-29T03:35:49;18.10;99.90
19999;DHT22;10160;50.926;4.374;2023-07-29T03:38:15;18.10;99.90
19999;DHT22;10160;50.926;4.374;2023-07-29T03:40:41;18.20;99.90
19999;DHT22;10160;50.926;4.374;2023-07-29T03:43:07;18.30;99.90
19999;DHT22;10160;50.926;4.374;2023-07-29T03:45:34;18.20;99.90
19999;DHT22;10160;50.926;4.374;2023-07-29T03:48:00;18.30;99.90
19999;DHT22;10160;50.926;4.374;2023-07-29T03:50:26;18.40;99.90
19999;DHT22;10160;50.926;4.374;2023-07-29T03:52:52;18.40;99.90
19999;DHT22;10160;50.926;4.374;2023-07-29T03:55:18;18.30;99.90
19999;DHT22;10160;50.926;4.374;2023-07-29T03:57:44;18.30;99.90
19999;DHT22;10160;50.926;4.374;2023-07-29T04:00:10;18.30;99.90
19999;DHT22;10160;50.926;4.374;2023-07-29T04:02:36;18.30;99.90
19999;DHT22;10160;50.926;4.374;2023-07-29T04:05:05;18.40;99.90
19999;DHT22;10160;50.926;4.374;2023-07-29T04:07:34;18.30;99.90
19999;DHT22;10160;50.926;4.374;2023-07-29T04:10:00;18.30;99.90
19999;DHT22;10160;50.926;4.374;2023-07-29T04:12:26;18.30;99.90
19999;DHT22;10160;50.926;4.374;2023-07-29T04:14:52;18.30;99.90
19999;DHT22;10160;50.926;4.374;2023-07-29T04:17:17;18.10;99.90
19999;DHT22;10160;50.926;4.374;2023-07-29T04:19:43;18.10;99.90
19999;DHT22;10160;50.926;4.374;2023-07-29T04:22:09;18.10;99.90
19999;DHT22;10160;50.926;4.374;2023-07-29T04:24:34;18.20;99.90
19999;DHT22;10160;50.926;4.374;2023-07-29T04:27:00;18.20;99.90
19999;DHT22;10160;50.926;4.374;2023-07-29T04:29:26;18.20;99.90
19999;DHT22;10160;50.926;4.374;2023-07-29T04:31:52;18.20;99.90
19999;DHT22;10160;50.926;4.374;2023-07-29T04:34:18;18.20;99.90
19999;DHT22;10160;50.926;4.374;2023-07-29T04:36:45;18.30;99.90
19999;DHT22;10160;50.926;4.374;2023-07-29T04:39:10;18.20;99.90
19999;DHT22;10160;50.926;4.374;2023-07-29T04:41:36;18.20;99.90
19999;DHT22;10160;50.926;4.374;2023-07-29T04:44:02;18.10;99.90
19999;DHT22;10160;50.926;4.374;2023-07-29T04:46:27;18.00;99.90
19999;DHT22;10160;50.926;4.374;2023-07-29T04:48:53;18.00;99.90
19999;DHT22;10160;50.926;4.374;2023-07-29T04:51:19;17.90;99.90
19999;DHT22;10160;50.926;4.374;2023-07-29T04:53:45;17.90;99.90
19999;DHT22;10160;50.926;4.374;2023-07-29T04:56:10;17.90;99.90
19999;DHT22;10160;50.926;4.374;2023-07-29T04:58:36;17.80;99.90
19999;DHT22;10160;50.926;4.374;2023-07-29T05:01:03;17.90;99.90
19999;DHT22;10160;50.926;4.374;2023-07-29T05:03:29;17.90;99.90
19999;DHT22;10160;50.926;4.374;2023-07-29T05:05:55;17.80;99.90
19999;DHT22;10160;50.926;4.374;2023-07-29T05:08:22;17.80;99.90
19999;DHT22;10160;50.926;4.374;2023-07-29T05:10:51;17.90;99.90
19999;DHT22;10160;50.926;4.374;2023-07-29T05:13:18;18.00;99.90
19999;DHT22;10160;50.926;4.374;2023-07-29T05:15:44;18.10;99.90
19999;DHT22;10160;50.926;4.374;2023-07-29T05:18:11;18.00;99.90
19999;DHT22;10160;50.926;4.374;2023-07-29T05:20:36;18.10;99.90
19999;DHT22;10160;50.926;4.374;2023-07-29T05:23:02;18.10;99.90
19999;DHT22;10160;50.926;4.374;2023-07-29T05:25:28;18.20;99.90
19999;DHT22;10160;50.926;4.374;2023-07-29T05:27:54;18.20;99.90
19999;DHT22;10160;50.926;4.374;2023-07-29T05:30:20;18.20;99.90
19999;DHT22;10160;50.926;4.374;2023-07-29T05:32:45;18.20;99.90
19999;DHT22;10160;50.926;4.374;2023-07-29T05:35:11;18.10;99.90
19999;DHT22;10160;50.926;4.374;2023-07-29T05:37:40;18.10;99.90
19999;DHT22;10160;50.926;4.374;2023-07-29T05:40:07;17.90;99.90
19999;DHT22;10160;50.926;4.374;2023-07-29T05:42:34;18.00;99.90
19999;DHT22;10160;50.926;4.374;2023-07-29T05:45:00;18.10;99.90
19999;DHT22;10160;50.926;4.374;2023-07-29T05:47:26;18.20;99.90
19999;DHT22;10160;50.926;4.374;2023-07-29T05:49:52;18.10;99.90
19999;DHT22;10160;50.926;4.374;2023-07-29T05:52:21;18.10;99.90
19999;DHT22;10160;50.926;4.374;2023-07-29T05:54:46;18.10;99.90
19999;DHT22;10160;50.926;4.374;2023-07-29T05:57:12;18.00;99.90
19999;DHT22;10160;50.926;4.374;2023-07-29T05:59:38;18.10;99.90
19999;DHT22;10160;50.926;4.374;2023-07-29T06:02:04;18.00;99.90
19999;DHT22;10160;50.926;4.374;2023-07-29T06:04:30;18.10;99.90
19999;DHT22;10160;50.926;4.374;2023-07-29T06:06:56;18.30;99.90
19999;DHT22;10160;50.926;4.374;2023-07-29T06:09:22;18.30;99.90
19999;DHT22;10160;50.926;4.374;2023-07-29T06:11:48;18.40;99.90
19999;DHT22;10160;50.926;4.374;2023-07-29T06:14:13;18.50;99.90
19999;DHT22;10160;50.926;4.374;2023-07-29T06:16:39;18.50;99.90
19999;DHT22;10160;50.926;4.374;2023-07-29T06:19:05;18.60;99.90
19999;DHT22;10160;50.926;4.374;2023-07-29T06:21:31;18.70;99.90
19999;DHT22;10160;50.926;4.374;2023-07-29T06:23:56;18.90;99.90
19999;DHT22;10160;50.926;4.374;2023-07-29T06:26:22;19.20;99.90
19999;DHT22;10160;50.926;4.374;2023-07-29T06:28:48;19.30;99.90
19999;DHT22;10160;50.926;4.374;2023-07-29T06:31:13;19.40;99.90
19999;DHT22;10160;50.926;4.374;2023-07-29T06:33:39;19.40;99.90
19999;DHT22;10160;50.926;4.374;2023-07-29T06:36:05;19.40;99.90
19999;DHT22;10160;50.926;4.374;2023-07-29T06:38:31;19.50;99.90
19999;DHT22;10160;50.926;4.374;2023-07-29T06:40:56;19.70;99.90
19999;DHT22;10160;50.926;4.374;2023-07-29T06:43:22;19.60;99.90
19999;DHT22;10160;50.926;4.374;2023-07-29T06:45:48;19.50;99.90
19999;DHT22;10160;50.926;4.374;2023-07-29T06:48:13;19.60;99.90
19999;DHT22;10160;50.926;4.374;2023-07-29T06:50:39;19.60;99.90
19999;DHT22;10160;50.926;4.374;2023-07-29T06:53:05;19.80;99.90
19999;DHT22;10160;50.926;4.374;2023-07-29T06:55:31;19.90;99.90
19999;DHT22;10160;50.926;4.374;2023-07-29T06:57:57;19.90;99.90
19999;DHT22;10160;50.926;4.374;2023-07-29T07:00:22;20.00;99.90
19999;DHT22;10160;50.926;4.374;2023-07-29T07:02:48;19.90;99.90
19999;DHT22;10160;50.926;4.374;2023-07-29T07:05:14;20.00;99.90
19999;DHT22;10160;50.926;4.374;2023-07-29T07:07:40;19.90;99.90
19999;DHT22;10160;50.926;4.374;2023-07-29T07:10:06;19.90;99.90
19999;DHT22;10160;50.926;4.374;2023-07-29T07:12:31;19.90;99.90
19999;DHT22;10160;50.926;4.374;2023-07-29T07:14:57;20.00;99.90
19999;DHT22;10160;50.926;4.374;2023-07-29T07:17:23;20.00;99.90
19999;DHT22;10160;50.926;4.374;2023-07-29T07:19:48;20.00;99.90
19999;DHT22;10160;50.926;4.374;2023-07-29T07:22:15;20.00;99.90
19999;DHT22;10160;50.926;4.374;2023-07-29T07:24:41;19.90;99.90
19999;DHT22;10160;50.926;4.374;2023-07-29T07:27:07;19.90;99.90
19999;DHT22;10160;50.926;4.374;2023-07-29T07:29:32;19.80;99.90
19999;DHT22;10160;50.926;4.374;2023-07-29T07:31:58;19.80;99.90
19999;DHT22;10160;50.926;4.374;2023-07-29T07:34:24;19.80;99.90
19999;DHT22;10160;50.926;4.374;2023-07-29T07:36:50;19.80;99.90
19999;DHT22;10160;50.926;4.374;2023-07-29T07:39:16;19.70;99.90
19999;DHT22;10160;50.926;4.374;2023-07-29T07:41:42;19.70;99.90
19999;DHT22;10160;50.926;4.374;2023-07-29T07:44:08;19.80;99.90
19999;DHT22;10160;50.926;4.374;2023-07-29T07:46:33;19.90;99.90
19999;DHT22;10160;50.926;4.374;2023-07-29T07:48:59;20.00;99.90
19999;DHT22;10160;50.926;4.374;2023-07-29T07:51:24;20.10;99.90
19999;DHT22;10160;50.926;4.374;2023-07-29T07:53:50;20.30;99.90
19999;DHT22;10160;50.926;4.374;2023-07-29T07:56:16;20.40;99.90
19999;DHT22;10160;50.926;4.374;2023-07-29T07:58:41;20.50;99.90
19999;DHT22;10160;50.926;4.374;2023-07-29T08:01:08;20.50;99.90
19999;DHT22;10160;50.926;4.374;2023-07-29T08:03:35;20.70;99.90
19999;DHT22;10160;50.926;4.374;2023-07-29T08:06:01;20.80;99.90
19999;DHT22;10160;50.926;4.374;2023-07-29T08:08:27;20.70;99.90
19999;DHT22;10160;50.926;4.374;2023-07-29T08:10:53;20.60;99.90
19999;DHT22;10160;50.926;4.374;2023-07-29T08:13:20;20.70;99.90
19999;DHT22;10160;50.926;4.374;2023-07-29T08:15:47;20.70;99.90
19999;DHT22;10160;50.926;4.374;2023-07-29T08:18:17;20.90;99.90
19999;DHT22;10160;50.926;4.374;2023-07-29T08:20:56;21.00;99.90
19999;DHT22;10160;50.926;4.374;2023-07-29T08:23:29;20.90;99.90
19999;DHT22;10160;50.926;4.374;2023-07-29T08:25:56;21.10;99.90
19999;DHT22;10160;50.926;4.374;2023-07-29T08:28:27;21.10;99.90
19999;DHT22;10160;50.926;4.374;2023-07-29T08:30:52;21.00;99.90
19999;DHT22;10160;50.926;4.374;2023-07-29T08:33:18;20.90;99.90
19999;DHT22;10160;50.926;4.374;2023-07-29T08:35:44;21.10;99.90
19999;DHT22;10160;50.926;4.374;2023-07-29T08:38:09;21.40;99.90
19999;DHT22;10160;50.926;4.374;2023-07-29T08:40:37;21.10;99.90
19999;DHT22;10160;50.926;4.374;2023-07-29T08:43:07;20.90;99.90
19999;DHT22;10160;50.926;4.374;2023-07-29T08:45:37;21.10;99.90
19999;DHT22;10160;50.926;4.374;2023-07-29T08:48:08;21.10;99.90
19999;DHT22;10160;50.926;4.374;2023-07-29T08:50:36;21.20;99.90
19999;DHT22;10160;50.926;4.374;2023-07-29T08:53:04;21.50;99.90
19999;DHT22;10160;50.926;4.374;2023-07-29T08:55:31;21.40;99.90
19999;DHT22;10160;50.926;4.374;2023-07-29T08:58:00;21.40;99.90
19999;DHT22;10160;50.926;4.374;2023-07-29T09:00:27;21.60;99.90
19999;DHT22;10160;50.926;4.374;2023-07-29T09:02:53;21.70;99.90
19999;DHT22;10160;50.926;4.374;2023-07-29T09:05:21;21.80;99.90
19999;DHT22;10160;50.926;4.374;2023-07-29T09:07:48;22.10;99.90
19999;DHT22;10160;50.926;4.374;2023-07-29T09:10:16;22.30;99.90
19999;DHT22;10160;50.926;4.374;2023-07-29T09:12:42;22.20;99.90
19999;DHT22;10160;50.926;4.374;2023-07-29T09:15:08;22.40;99.90
19999;DHT22;10160;50.926;4.374;2023-07-29T09:17:34;22.20;99.90
19999;DHT22;10160;50.926;4.374;2023-07-29T09:20:00;22.40;99.90
19999;DHT22;10160;50.926;4.374;2023-07-29T09:22:27;22.50;99.90
19999;DHT22;10160;50.926;4.374;2023-07-29T09:24:53;22.40;99.90
19999;DHT22;10160;50.926;4.374;2023-07-29T09:27:26;22.70;99.90
19999;DHT22;10160;50.926;4.374;2023-07-29T09:29:56;22.80;99.90
19999;DHT22;10160;50.926;4.374;2023-07-29T09:32:24;22.60;99.90
19999;DHT22;10160;50.926;4.374;2023-07-29T09:34:50;22.60;99.90
19999;DHT22;10160;50.926;4.374;2023-07-29T09:37:25;22.50;99.90
19999;DHT22;10160;50.926;4.374;2023-07-29T09:39:51;22.20;99.90
19999;DHT22;10160;50.926;4.374;2023-07-29T09:42:22;22.10;99.90
19999;DHT22;10160;50.926;4.374;2023-07-29T09:44:50;22.20;99.90
19999;DHT22;10160;50.926;4.374;2023-07-29T09:47:23;22.30;99.90
19999;DHT22;10160;50.926;4.374;2023-07-29T09:49:49;22.50;99.90
19999;DHT22;10160;50.926;4.374;2023-07-29T09:52:22;22.40;99.90
19999;DHT22;10160;50.926;4.374;2023-07-29T09:54:48;22.20;99.90
19999;DHT22;10160;50.926;4.374;2023-07-29T09:57:17;22.10;99.90
19999;DHT22;10160;50.926;4.374;2023-07-29T09:59:43;21.80;99.90
19999;DHT22;10160;50.926;4.374;2023-07-29T10:02:16;21.70;99.90
19999;DHT22;10160;50.926;4.374;2023-07-29T10:04:42;22.00;99.90
19999;DHT22;10160;50.926;4.374;2023-07-29T10:07:11;22.30;99.90
19999;DHT22;10160;50.926;4.374;2023-07-29T10:09:40;22.60;99.90
19999;DHT22;10160;50.926;4.374;2023-07-29T10:12:06;22.70;99.90
19999;DHT22;10160;50.926;4.374;2023-07-29T10:14:33;22.60;99.90
19999;DHT22;10160;50.926;4.374;2023-07-29T10:17:00;22.90;99.90
19999;DHT22;10160;50.926;4.374;2023-07-29T10:19:26;23.20;99.90
19999;DHT22;10160;50.926;4.374;2023-07-29T10:21:58;23.40;99.90
19999;DHT22;10160;50.926;4.374;2023-07-29T10:24:26;23.60;99.90
19999;DHT22;10160;50.926;4.374;2023-07-29T10:27:01;23.60;99.90
19999;DHT22;10160;50.926;4.374;2023-07-29T10:29:31;23.90;99.90
19999;DHT22;10160;50.926;4.374;2023-07-29T10:32:02;24.20;99.90
19999;DHT22;10160;50.926;4.374;2023-07-29T10:34:30;23.90;99.90
19999;DHT22;10160;50.926;4.374;2023-07-29T10:36:57;23.70;99.90
19999;DHT22;10160;50.926;4.374;2023-07-29T10:39:38;23.40;99.90
19999;DHT22;10160;50.926;4.374;2023-07-29T10:42:06;23.30;99.90
19999;DHT22;10160;50.926;4.374;2023-07-29T10:47:16;23.50;99.90
19999;DHT22;10160;50.926;4.374;2023-07-29T10:49:49;23.50;99.90
19999;DHT22;10160;50.926;4.374;2023-07-29T10:52:27;23.10;99.90
19999;DHT22;10160;50.926;4.374;2023-07-29T10:54:53;22.70;99.90
19999;DHT22;10160;50.926;4.374;2023-07-29T10:57:31;22.80;99.90
19999;DHT22;10160;50.926;4.374;2023-07-29T10:59:58;22.80;99.90
19999;DHT22;10160;50.926;4.374;2023-07-29T11:02:35;22.70;99.90
19999;DHT22;10160;50.926;4.374;2023-07-29T11:05:16;22.70;99.90
19999;DHT22;10160;50.926;4.374;2023-07-29T11:07:48;22.40;99.90
19999;DHT22;10160;50.926;4.374;2023-07-29T11:10:17;22.00;99.90
19999;DHT22;10160;50.926;4.374;2023-07-29T11:12:48;21.90;99.90
19999;DHT22;10160;50.926;4.374;2023-07-29T11:15:31;21.80;99.90
19999;DHT22;10160;50.926;4.374;2023-07-29T11:17:58;21.60;99.90
19999;DHT22;10160;50.926;4.374;2023-07-29T11:20:29;21.50;99.90
19999;DHT22;10160;50.926;4.374;2023-07-29T11:22:57;21.40;99.90
19999;DHT22;10160;50.926;4.374;2023-07-29T11:25:25;21.40;99.90
19999;DHT22;10160;50.926;4.374;2023-07-29T11:27:57;21.50;99.90
19999;DHT22;10160;50.926;4.374;2023-07-29T11:30:23;21.70;99.90
19999;DHT22;10160;50.926;4.374;2023-07-29T11:32:53;21.60;99.90
19999;DHT22;10160;50.926;4.374;2023-07-29T11:35:20;21.70;99.90
19999;DHT22;10160;50.926;4.374;2023-07-29T11:37:48;21.90;99.90
19999;DHT22;10160;50.926;4.374;2023-07-29T11:40:19;22.30;99.90
19999;DHT22;10160;50.926;4.374;2023-07-29T11:42:46;22.70;99.90
19999;DHT22;10160;50.926;4.374;2023-07-29T11:45:13;23.00;99.90
19999;DHT22;10160;50.926;4.374;2023-07-29T11:47:39;23.20;99.90
19999;DHT22;10160;50.926;4.374;2023-07-29T11:50:09;23.40;99.90
19999;DHT22;10160;50.926;4.374;2023-07-29T11:52:40;23.20;99.90
19999;DHT22;10160;50.926;4.374;2023-07-29T11:55:06;22.70;99.90
19999;DHT22;10160;50.926;4.374;2023-07-29T11:57:39;22.60;99.90
19999;DHT22;10160;50.926;4.374;2023-07-29T12:00:10;22.60;99.90
19999;DHT22;10160;50.926;4.374;2023-07-29T12:02:42;22.60;99.90
19999;DHT22;10160;50.926;4.374;2023-07-29T12:05:09;22.70;99.90
19999;DHT22;10160;50.926;4.374;2023-07-29T12:07:36;22.70;99.90
19999;DHT22;10160;50.926;4.374;2023-07-29T12:10:04;22.60;99.90
19999;DHT22;10160;50.926;4.374;2023-07-29T12:12:29;22.40;99.90
19999;DHT22;10160;50.926;4.374;2023-07-29T12:14:56;22.50;99.90
19999;DHT22;10160;50.926;4.374;2023-07-29T12:17:22;22.20;99.90
19999;DHT22;10160;50.926;4.374;2023-07-29T12:19:47;22.20;99.90
19999;DHT22;10160;50.926;4.374;2023-07-29T12:22:18;22.00;99.90
19999;DHT22;10160;50.926;4.374;2023-07-29T12:24:44;21.80;99.90
19999;DHT22;10160;50.926;4.374;2023-07-29T12:27:14;21.70;99.90
19999;DHT22;10160;50.926;4.374;2023-07-29T12:29:42;21.70;99.90
19999;DHT22;10160;50.926;4.374;2023-07-29T12:32:08;21.70;99.90
19999;DHT22;10160;50.926;4.374;2023-07-29T12:34:35;21.90;99.90
19999;DHT22;10160;50.926;4.374;2023-07-29T12:37:03;22.00;99.90
19999;DHT22;10160;50.926;4.374;2023-07-29T12:39:31;22.20;99.90
19999;DHT22;10160;50.926;4.374;2023-07-29T12:41:59;22.20;99.90
19999;DHT22;10160;50.926;4.374;2023-07-29T12:44:47;22.30;99.90
19999;DHT22;10160;50.926;4.374;2023-07-29T12:47:12;22.20;99.90
19999;DHT22;10160;50.926;4.374;2023-07-29T12:49:37;22.30;99.90
19999;DHT22;10160;50.926;4.374;2023-07-29T12:52:03;22.40;99.90
19999;DHT22;10160;50.926;4.374;2023-07-29T12:54:29;21.90;99.90
19999;DHT22;10160;50.926;4.374;2023-07-29T12:56:54;22.10;99.90
19999;DHT22;10160;50.926;4.374;2023-07-29T12:59:20;22.50;99.90
19999;DHT22;10160;50.926;4.374;2023-07-29T13:01:46;23.00;99.90
19999;DHT22;10160;50.926;4.374;2023-07-29T13:04:14;23.60;99.90
19999;DHT22;10160;50.926;4.374;2023-07-29T13:06:40;23.70;99.90
19999;DHT22;10160;50.926;4.374;2023-07-29T13:09:06;24.20;99.90
19999;DHT22;10160;50.926;4.374;2023-07-29T13:11:32;24.30;99.90
19999;DHT22;10160;50.926;4.374;2023-07-29T13:13:58;24.30;99.90
19999;DHT22;10160;50.926;4.374;2023-07-29T13:16:26;24.40;99.90
19999;DHT22;10160;50.926;4.374;2023-07-29T13:18:51;24.40;99.90
19999;DHT22;10160;50.926;4.374;2023-07-29T13:21:20;24.70;99.90
19999;DHT22;10160;50.926;4.374;2023-07-29T13:23:52;24.90;99.90
19999;DHT22;10160;50.926;4.374;2023-07-29T13:26:17;25.00;99.90
19999;DHT22;10160;50.926;4.374;2023-07-29T13:28:43;24.90;99.90
19999;DHT22;10160;50.926;4.374;2023-07-29T13:31:09;25.00;99.90
19999;DHT22;10160;50.926;4.374;2023-07-29T13:33:34;25.20;99.90
19999;DHT22;10160;50.926;4.374;2023-07-29T13:36:01;25.00;99.90
19999;DHT22;10160;50.926;4.374;2023-07-29T13:38:29;24.90;99.90
19999;DHT22;10160;50.926;4.374;2023-07-29T13:40:54;24.70;99.90
19999;DHT22;10160;50.926;4.374;2023-07-29T13:43:21;24.40;99.90
19999;DHT22;10160;50.926;4.374;2023-07-29T13:45:47;24.20;99.90
19999;DHT22;10160;50.926;4.374;2023-07-29T13:48:14;24.40;99.90
19999;DHT22;10160;50.926;4.374;2023-07-29T13:50:40;24.00;99.90
19999;DHT22;10160;50.926;4.374;2023-07-29T13:53:06;23.80;99.90
19999;DHT22;10160;50.926;4.374;2023-07-29T13:55:32;23.80;99.90
19999;DHT22;10160;50.926;4.374;2023-07-29T13:57:58;24.00;99.90
19999;DHT22;10160;50.926;4.374;2023-07-29T14:00:24;24.70;99.90
19999;DHT22;10160;50.926;4.374;2023-07-29T14:02:52;25.10;99.90
19999;DHT22;10160;50.926;4.374;2023-07-29T14:05:18;24.80;99.90
19999;DHT22;10160;50.926;4.374;2023-07-29T14:07:44;24.80;99.90
19999;DHT22;10160;50.926;4.374;2023-07-29T14:10:10;24.90;99.90
19999;DHT22;10160;50.926;4.374;2023-07-29T14:12:35;25.20;99.90
19999;DHT22;10160;50.926;4.374;2023-07-29T14:15:01;25.00;99.90
19999;DHT22;10160;50.926;4.374;2023-07-29T14:17:27;24.90;99.90
19999;DHT22;10160;50.926;4.374;2023-07-29T14:19:53;24.70;99.90
19999;DHT22;10160;50.926;4.374;2023-07-29T14:22:18;24.50;99.90
19999;DHT22;10160;50.926;4.374;2023-07-29T14:24:44;24.40;99.90
19999;DHT22;10160;50.926;4.374;2023-07-29T14:27:10;24.60;99.90
19999;DHT22;10160;50.926;4.374;2023-07-29T14:29:38;24.40;99.90
19999;DHT22;10160;50.926;4.374;2023-07-29T14:32:04;24.30;99.90
19999;DHT22;10160;50.926;4.374;2023-07-29T14:34:29;24.60;99.90
19999;DHT22;10160;50.926;4.374;2023-07-29T14:36:55;24.40;99.90
19999;DHT22;10160;50.926;4.374;2023-07-29T14:39:21;24.20;99.90
19999;DHT22;10160;50.926;4.374;2023-07-29T14:41:47;23.80;99.90
19999;DHT22;10160;50.926;4.374;2023-07-29T14:44:12;23.90;99.90
19999;DHT22;10160;50.926;4.374;2023-07-29T14:46:38;24.00;99.90
19999;DHT22;10160;50.926;4.374;2023-07-29T14:49:04;24.20;99.90
19999;DHT22;10160;50.926;4.374;2023-07-29T14:51:29;24.10;99.90
19999;DHT22;10160;50.926;4.374;2023-07-29T14:53:55;24.00;99.90
19999;DHT22;10160;50.926;4.374;2023-07-29T14:56:21;23.80;99.90
19999;DHT22;10160;50.926;4.374;2023-07-29T14:58:46;23.70;99.90
19999;DHT22;10160;50.926;4.374;2023-07-29T15:01:12;23.70;99.90
19999;DHT22;10160;50.926;4.374;2023-07-29T15:03:38;24.00;99.90
19999;DHT22;10160;50.926;4.374;2023-07-29T15:06:07;24.30;99.90
19999;DHT22;10160;50.926;4.374;2023-07-29T15:08:32;24.30;99.90
19999;DHT22;10160;50.926;4.374;2023-07-29T15:10:58;24.30;99.90
19999;DHT22;10160;50.926;4.374;2023-07-29T15:13:24;24.40;99.90
19999;DHT22;10160;50.926;4.374;2023-07-29T15:15:49;24.30;99.90
19999;DHT22;10160;50.926;4.374;2023-07-29T15:18:16;24.20;99.90
19999;DHT22;10160;50.926;4.374;2023-07-29T15:20:42;24.30;99.90
19999;DHT22;10160;50.926;4.374;2023-07-29T15:23:07;24.50;99.90
19999;DHT22;10160;50.926;4.374;2023-07-29T15:25:33;24.40;99.90
19999;DHT22;10160;50.926;4.374;2023-07-29T15:27:59;24.30;99.90
19999;DHT22;10160;50.926;4.374;2023-07-29T15:30:25;24.20;99.90
19999;DHT22;10160;50.926;4.374;2023-07-29T15:32:51;23.90;99.90
19999;DHT22;10160;50.926;4.374;2023-07-29T15:35:23;23.70;99.90
19999;DHT22;10160;50.926;4.374;2023-07-29T15:37:49;23.90;99.90
19999;DHT22;10160;50.926;4.374;2023-07-29T15:40:15;24.10;99.90